Moraga, California
Current Conditions -  °F | °C
As of 6:53 PM on Thursday 27 Nov 2014 (Local Time) from KOAK Reporting Station
Few Clouds Few Clouds  
Wind Chill: 56°   Ceiling: Unl
Heat Index: 56°   Visibility: 8mi
Dew Point: 48°   Wind: 0mph
Humidity: 75%   Direction: NA
Pressure: 30.06"   Gusts: NA
Location:  37.83°N, 122.13°W
Report Text: KOAK 280253Z 00000KT 8SM FEW200 13/09 A3006 RMK AO2 SLP178 T01330089 55004 $
Loading
Personal Weather Stations






























Interactive Weather Map New forecast layout! Learn more

10-Day Weather Forecast

Advertisements
Track Severe Weather on mobile